Howellville, Texas
Current Conditions -  °F | °C
As of 4:53 AM on Friday 24 Oct 2014 (Local Time) from KSGR Reporting Station
Clear Clear  
Wind Chill: 58°   Ceiling: Unl
Heat Index: 58°   Visibility: 10mi
Dew Point: 54°   Wind: 5mph
Humidity: 87%   Direction: 20°NNE
Pressure: 30.11"   Gusts: NA
Location:  29.7106°N, 95.5963°W
Report Text: KSGR 240953Z AUTO 02004KT 10SM CLR 14/12 A3011 RMK AO2 SLP198 T01440122
Loading
Personal Weather Stations






























Interactive Weather Map
Tropical Storm Tracking
New forecast layout! Learn more

10-Day Weather Forecast

Advertisements
Track Severe Weather on mobile